sensor_id;sensor_type;location;lat;lon;timestamp;pressure;altitude;pressure_sealevel;temperature;humidity
52745;BME280;38637;49.984;20.426;2023-05-09T00:00:30;100454.47;;;2.60;87.91
52745;BME280;38637;49.984;20.426;2023-05-09T00:02:56;100445.22;;;2.54;87.82
52745;BME280;38637;49.984;20.426;2023-05-09T00:05:21;100449.69;;;2.47;88.84
52745;BME280;38637;49.984;20.426;2023-05-09T00:07:47;100438.44;;;2.43;88.84
52745;BME280;38637;49.984;20.426;2023-05-09T00:10:13;100440.47;;;2.41;89.17
52745;BME280;38637;49.984;20.426;2023-05-09T00:12:38;100434.72;;;2.44;89.76
52745;BME280;38637;49.984;20.426;2023-05-09T00:15:04;100441.97;;;2.44;89.05
52745;BME280;38637;49.984;20.426;2023-05-09T00:17:32;100426.72;;;2.36;89.30
52745;BME280;38637;49.984;20.426;2023-05-09T00:19:58;100434.09;;;2.42;89.54
52745;BME280;38637;49.984;20.426;2023-05-09T00:22:26;100436.31;;;2.53;88.84
52745;BME280;38637;49.984;20.426;2023-05-09T00:24:51;100428.31;;;2.60;88.71
52745;BME280;38637;49.984;20.426;2023-05-09T00:27:17;100428.53;;;2.59;88.14
52745;BME280;38637;49.984;20.426;2023-05-09T00:29:42;100434.94;;;2.58;88.37
52745;BME280;38637;49.984;20.426;2023-05-09T00:32:08;100424.81;;;2.60;87.99
52745;BME280;38637;49.984;20.426;2023-05-09T00:34:33;100416.81;;;2.51;87.89
52745;BME280;38637;49.984;20.426;2023-05-09T00:36:59;100418.63;;;2.36;87.66
52745;BME280;38637;49.984;20.426;2023-05-09T00:39:25;100419.91;;;2.25;88.71
52745;BME280;38637;49.984;20.426;2023-05-09T00:41:50;100433.06;;;2.20;88.96
52745;BME280;38637;49.984;20.426;2023-05-09T00:44:16;100426.69;;;2.21;89.20
52745;BME280;38637;49.984;20.426;2023-05-09T00:46:42;100426.22;;;2.33;89.22
52745;BME280;38637;49.984;20.426;2023-05-09T00:49:07;100423.84;;;2.38;88.78
52745;BME280;38637;49.984;20.426;2023-05-09T00:51:35;100422.91;;;2.30;88.13
52745;BME280;38637;49.984;20.426;2023-05-09T00:54:01;100416.91;;;2.20;88.39
52745;BME280;38637;49.984;20.426;2023-05-09T00:56:26;100419.59;;;2.20;88.42
52745;BME280;38637;49.984;20.426;2023-05-09T00:58:51;100413.09;;;2.15;88.39
52745;BME280;38637;49.984;20.426;2023-05-09T01:01:17;100419.59;;;2.20;88.36
52745;BME280;38637;49.984;20.426;2023-05-09T01:03:42;100412.00;;;2.24;88.09
52745;BME280;38637;49.984;20.426;2023-05-09T01:10:15;100413.84;;;2.23;87.67
52745;BME280;38637;49.984;20.426;2023-05-09T01:12:25;100417.56;;;2.22;88.39
52745;BME280;38637;49.984;20.426;2023-05-09T01:15:04;100418.03;;;2.26;88.22
52745;BME280;38637;49.984;20.426;2023-05-09T01:17:51;100415.19;;;2.27;88.30
52745;BME280;38637;49.984;20.426;2023-05-09T01:22:54;100415.66;;;2.31;88.22
52745;BME280;38637;49.984;20.426;2023-05-09T01:25:40;100411.91;;;2.32;87.57
52745;BME280;38637;49.984;20.426;2023-05-09T01:28:40;100412.94;;;2.31;87.91
52745;BME280;38637;49.984;20.426;2023-05-09T01:31:16;100411.41;;;2.14;87.27
52745;BME280;38637;49.984;20.426;2023-05-09T01:33:45;100409.00;;;1.96;87.48
52745;BME280;38637;49.984;20.426;2023-05-09T01:36:14;100419.91;;;1.79;87.35
52745;BME280;38637;49.984;20.426;2023-05-09T01:38:41;100413.75;;;1.71;88.26
52745;BME280;38637;49.984;20.426;2023-05-09T01:41:09;100411.72;;;1.73;89.04
52745;BME280;38637;49.984;20.426;2023-05-09T01:43:37;100409.16;;;1.79;89.73
52745;BME280;38637;49.984;20.426;2023-05-09T01:46:04;100412.50;;;1.81;90.08
52745;BME280;38637;49.984;20.426;2023-05-09T01:48:30;100401.91;;;1.80;89.70
52745;BME280;38637;49.984;20.426;2023-05-09T01:50:57;100395.38;;;1.74;89.59
52745;BME280;38637;49.984;20.426;2023-05-09T01:53:24;100413.09;;;1.69;90.04
52745;BME280;38637;49.984;20.426;2023-05-09T01:55:51;100407.56;;;1.62;89.75
52745;BME280;38637;49.984;20.426;2023-05-09T01:58:17;100404.75;;;1.55;90.45
52745;BME280;38637;49.984;20.426;2023-05-09T02:00:44;100406.97;;;1.52;90.41
52745;BME280;38637;49.984;20.426;2023-05-09T02:03:11;100402.53;;;1.59;90.51
52745;BME280;38637;49.984;20.426;2023-05-09T02:05:37;100397.16;;;1.59;90.67
52745;BME280;38637;49.984;20.426;2023-05-09T02:08:03;100405.53;;;1.64;91.04
52745;BME280;38637;49.984;20.426;2023-05-09T02:10:29;100400.41;;;1.54;90.44
52745;BME280;38637;49.984;20.426;2023-05-09T02:12:55;100403.25;;;1.53;90.71
52745;BME280;38637;49.984;20.426;2023-05-09T02:15:21;100398.72;;;1.53;91.07
52745;BME280;38637;49.984;20.426;2023-05-09T02:17:47;100395.31;;;1.59;91.00
52745;BME280;38637;49.984;20.426;2023-05-09T02:20:12;100406.84;;;1.68;90.52
52745;BME280;38637;49.984;20.426;2023-05-09T02:22:39;100391.66;;;1.52;90.64
52745;BME280;38637;49.984;20.426;2023-05-09T02:25:09;100400.56;;;1.53;90.80
52745;BME280;38637;49.984;20.426;2023-05-09T02:27:34;100400.75;;;1.51;90.32
52745;BME280;38637;49.984;20.426;2023-05-09T02:30:05;100395.59;;;1.42;90.14
52745;BME280;38637;49.984;20.426;2023-05-09T02:32:33;100397.81;;;1.38;89.99
52745;BME280;38637;49.984;20.426;2023-05-09T02:35:00;100395.13;;;1.38;90.16
52745;BME280;38637;49.984;20.426;2023-05-09T02:37:26;100397.63;;;1.40;90.23
52745;BME280;38637;49.984;20.426;2023-05-09T02:39:53;100393.25;;;1.38;90.35
52745;BME280;38637;49.984;20.426;2023-05-09T02:42:21;100388.50;;;1.41;90.65
52745;BME280;38637;49.984;20.426;2023-05-09T02:44:52;100391.06;;;1.34;90.49
52745;BME280;38637;49.984;20.426;2023-05-09T02:47:18;100393.28;;;1.30;90.68
52745;BME280;38637;49.984;20.426;2023-05-09T02:49:43;100378.03;;;1.23;90.73
52745;BME280;38637;49.984;20.426;2023-05-09T02:52:09;100381.84;;;1.28;91.18
52745;BME280;38637;49.984;20.426;2023-05-09T02:54:35;100380.53;;;1.24;90.62
52745;BME280;38637;49.984;20.426;2023-05-09T02:57:01;100384.53;;;1.28;90.79
52745;BME280;38637;49.984;20.426;2023-05-09T02:59:26;100391.06;;;1.34;90.75
52745;BME280;38637;49.984;20.426;2023-05-09T03:01:51;100388.38;;;1.34;90.13
52745;BME280;38637;49.984;20.426;2023-05-09T03:04:17;100391.88;;;1.43;90.05
52745;BME280;38637;49.984;20.426;2023-05-09T03:06:42;100398.09;;;1.43;90.01
52745;BME280;38637;49.984;20.426;2023-05-09T03:09:08;100396.03;;;1.53;89.90
52745;BME280;38637;49.984;20.426;2023-05-09T03:11:34;100390.28;;;1.56;90.07
52745;BME280;38637;49.984;20.426;2023-05-09T03:14:01;100390.16;;;1.50;91.16
52745;BME280;38637;49.984;20.426;2023-05-09T03:16:26;100389.44;;;1.56;91.64
52745;BME280;38637;49.984;20.426;2023-05-09T03:18:51;100396.09;;;1.68;91.40
52745;BME280;38637;49.984;20.426;2023-05-09T03:21:17;100395.31;;;1.82;90.55
52745;BME280;38637;49.984;20.426;2023-05-09T03:23:42;100394.25;;;1.92;89.24
52745;BME280;38637;49.984;20.426;2023-05-09T03:26:07;100392.69;;;1.97;88.79
52745;BME280;38637;49.984;20.426;2023-05-09T03:28:33;100397.16;;;2.05;88.82
52745;BME280;38637;49.984;20.426;2023-05-09T03:30:58;100396.06;;;2.14;88.24
52745;BME280;38637;49.984;20.426;2023-05-09T03:33:24;100390.50;;;2.16;88.11
52745;BME280;38637;49.984;20.426;2023-05-09T03:35:49;100400.25;;;2.17;88.69
52745;BME280;38637;49.984;20.426;2023-05-09T03:38:15;100405.97;;;2.22;88.93
52745;BME280;38637;49.984;20.426;2023-05-09T03:40:40;100409.88;;;2.34;88.34
52745;BME280;38637;49.984;20.426;2023-05-09T03:43:05;100408.97;;;2.42;87.55
52745;BME280;38637;49.984;20.426;2023-05-09T03:45:31;100403.09;;;2.38;88.04
52745;BME280;38637;49.984;20.426;2023-05-09T03:47:56;100407.19;;;2.34;89.70
52745;BME280;38637;49.984;20.426;2023-05-09T03:50:22;100407.97;;;2.43;90.61
52745;BME280;38637;49.984;20.426;2023-05-09T03:52:47;100409.66;;;2.59;90.48
52745;BME280;38637;49.984;20.426;2023-05-09T03:55:12;100410.22;;;2.69;90.25
52745;BME280;38637;49.984;20.426;2023-05-09T03:57:37;100392.09;;;2.78;90.42
52745;BME280;38637;49.984;20.426;2023-05-09T04:00:04;100402.59;;;3.02;89.76
52745;BME280;38637;49.984;20.426;2023-05-09T04:02:32;100398.47;;;3.21;88.94
52745;BME280;38637;49.984;20.426;2023-05-09T04:04:57;100404.59;;;3.30;89.89
52745;BME280;38637;49.984;20.426;2023-05-09T04:07:23;100401.22;;;3.42;89.31
52745;BME280;38637;49.984;20.426;2023-05-09T04:09:48;100399.31;;;3.58;89.18
52745;BME280;38637;49.984;20.426;2023-05-09T04:12:14;100402.53;;;3.83;87.99
52745;BME280;38637;49.984;20.426;2023-05-09T04:14:39;100398.97;;;4.04;87.17
52745;BME280;38637;49.984;20.426;2023-05-09T04:17:05;100401.03;;;4.23;86.41
52745;BME280;38637;49.984;20.426;2023-05-09T04:19:30;100396.13;;;4.33;87.13
52745;BME280;38637;49.984;20.426;2023-05-09T04:21:55;100402.47;;;4.47;86.85
52745;BME280;38637;49.984;20.426;2023-05-09T04:24:21;100395.72;;;4.65;86.33
52745;BME280;38637;49.984;20.426;2023-05-09T04:26:46;100394.53;;;4.74;85.99
52745;BME280;38637;49.984;20.426;2023-05-09T04:29:12;100397.53;;;4.86;86.34
52745;BME280;38637;49.984;20.426;2023-05-09T04:31:37;100400.28;;;4.99;85.27
52745;BME280;38637;49.984;20.426;2023-05-09T04:34:03;100396.59;;;5.06;84.16
52745;BME280;38637;49.984;20.426;2023-05-09T04:36:28;100394.56;;;5.15;nan
52745;BME280;38637;49.984;20.426;2023-05-09T04:38:53;100399.22;;;5.35;83.74
52745;BME280;38637;49.984;20.426;2023-05-09T04:41:19;100399.25;;;5.41;82.33
52745;BME280;38637;49.984;20.426;2023-05-09T04:43:45;100406.41;;;5.56;82.30
52745;BME280;38637;49.984;20.426;2023-05-09T04:46:10;100397.44;;;5.62;81.92
52745;BME280;38637;49.984;20.426;2023-05-09T04:48:36;100407.28;;;5.76;81.30
52745;BME280;38637;49.984;20.426;2023-05-09T04:51:01;100399.59;;;5.86;81.47
52745;BME280;38637;49.984;20.426;2023-05-09T04:53:26;100395.50;;;5.97;81.13
52745;BME280;38637;49.984;20.426;2023-05-09T04:55:52;100399.25;;;6.09;80.70
52745;BME280;38637;49.984;20.426;2023-05-09T04:58:18;100392.16;;;6.15;80.92
52745;BME280;38637;49.984;20.426;2023-05-09T05:00:43;100398.44;;;6.15;80.57
52745;BME280;38637;49.984;20.426;2023-05-09T05:03:09;100406.16;;;6.32;80.49
52745;BME280;38637;49.984;20.426;2023-05-09T05:05:34;100395.72;;;6.42;79.75
52745;BME280;38637;49.984;20.426;2023-05-09T05:08:00;100390.50;;;6.47;79.92
52745;BME280;38637;49.984;20.426;2023-05-09T05:10:25;100392.16;;;6.55;79.92
52745;BME280;38637;49.984;20.426;2023-05-09T05:12:50;100394.66;;;6.56;80.26
52745;BME280;38637;49.984;20.426;2023-05-09T05:15:16;100389.44;;;6.68;80.12
52745;BME280;38637;49.984;20.426;2023-05-09T05:17:43;100395.06;;;6.66;80.70
52745;BME280;38637;49.984;20.426;2023-05-09T05:20:09;100386.25;;;6.84;80.60
52745;BME280;38637;49.984;20.426;2023-05-09T05:22:34;100384.56;;;6.97;79.94
52745;BME280;38637;49.984;20.426;2023-05-09T05:25:00;100389.16;;;6.96;80.17
52745;BME280;38637;49.984;20.426;2023-05-09T05:27:27;100383.09;;;7.07;80.11
52745;BME280;38637;49.984;20.426;2023-05-09T05:29:52;100389.56;;;7.00;80.03
52745;BME280;38637;49.984;20.426;2023-05-09T05:32:18;100389.53;;;7.13;80.31
52745;BME280;38637;49.984;20.426;2023-05-09T05:34:43;100387.97;;;7.37;79.44
52745;BME280;38637;49.984;20.426;2023-05-09T05:37:08;100384.34;;;7.56;79.37
52745;BME280;38637;49.984;20.426;2023-05-09T05:39:34;100395.56;;;7.67;79.25
52745;BME280;38637;49.984;20.426;2023-05-09T05:41:59;100384.91;;;7.65;78.79
52745;BME280;38637;49.984;20.426;2023-05-09T05:44:24;100383.44;;;7.69;78.53
52745;BME280;38637;49.984;20.426;2023-05-09T05:46:50;100376.78;;;7.58;79.64
52745;BME280;38637;49.984;20.426;2023-05-09T05:49:15;100381.75;;;7.68;80.27
52745;BME280;38637;49.984;20.426;2023-05-09T05:51:40;100366.06;;;7.70;80.05
52745;BME280;38637;49.984;20.426;2023-05-09T05:54:06;100374.19;;;7.77;80.13
52745;BME280;38637;49.984;20.426;2023-05-09T05:56:31;100382.09;;;7.85;79.86
52745;BME280;38637;49.984;20.426;2023-05-09T05:58:56;100377.41;;;7.92;80.06
52745;BME280;38637;49.984;20.426;2023-05-09T06:01:22;100364.34;;;8.07;79.91
52745;BME280;38637;49.984;20.426;2023-05-09T06:03:47;100375.53;;;8.24;79.52
52745;BME280;38637;49.984;20.426;2023-05-09T06:06:18;100367.91;;;8.40;79.83
52745;BME280;38637;49.984;20.426;2023-05-09T06:08:44;100372.94;;;8.61;79.02
52745;BME280;38637;49.984;20.426;2023-05-09T06:11:10;100373.09;;;8.66;77.74
52745;BME280;38637;49.984;20.426;2023-05-09T06:13:35;100366.91;;;8.78;76.58
52745;BME280;38637;49.984;20.426;2023-05-09T06:16:01;100372.88;;;8.86;75.25
52745;BME280;38637;49.984;20.426;2023-05-09T06:18:27;100364.72;;;8.86;74.72
52745;BME280;38637;49.984;20.426;2023-05-09T06:20:53;100361.47;;;8.96;74.48
52745;BME280;38637;49.984;20.426;2023-05-09T06:23:18;100354.28;;;9.02;74.63
52745;BME280;38637;49.984;20.426;2023-05-09T06:25:46;100355.81;;;9.16;75.05
52745;BME280;38637;49.984;20.426;2023-05-09T06:28:12;100348.81;;;9.20;73.62
52745;BME280;38637;49.984;20.426;2023-05-09T06:30:37;100339.63;;;9.33;72.94
52745;BME280;38637;49.984;20.426;2023-05-09T06:33:02;100347.25;;;9.42;73.14
52745;BME280;38637;49.984;20.426;2023-05-09T06:35:28;100345.41;;;9.55;73.59
52745;BME280;38637;49.984;20.426;2023-05-09T06:37:53;100338.94;;;9.56;71.75
52745;BME280;38637;49.984;20.426;2023-05-09T06:40:18;100336.78;;;9.58;71.50
52745;BME280;38637;49.984;20.426;2023-05-09T06:42:44;100342.28;;;9.70;72.53
52745;BME280;38637;49.984;20.426;2023-05-09T06:45:09;100341.97;;;9.78;72.08
52745;BME280;38637;49.984;20.426;2023-05-09T06:47:35;100341.53;;;9.93;72.02
52745;BME280;38637;49.984;20.426;2023-05-09T06:50:00;100336.78;;;10.00;68.75
52745;BME280;38637;49.984;20.426;2023-05-09T06:52:26;100339.56;;;10.11;70.51
52745;BME280;38637;49.984;20.426;2023-05-09T06:54:51;100342.88;;;10.25;70.60
52745;BME280;38637;49.984;20.426;2023-05-09T06:57:17;100332.94;;;10.31;70.20
52745;BME280;38637;49.984;20.426;2023-05-09T06:59:42;100334.72;;;10.37;69.76
52745;BME280;38637;49.984;20.426;2023-05-09T07:02:09;100341.41;;;10.41;68.56
52745;BME280;38637;49.984;20.426;2023-05-09T07:04:34;100340.81;;;10.51;67.79
52745;BME280;38637;49.984;20.426;2023-05-09T07:06:59;100329.53;;;10.59;67.84
52745;BME280;38637;49.984;20.426;2023-05-09T07:09:25;100321.69;;;10.74;68.24
52745;BME280;38637;49.984;20.426;2023-05-09T07:11:55;100314.19;;;10.81;65.84
52745;BME280;38637;49.984;20.426;2023-05-09T07:14:21;100315.94;;;10.99;64.14
52745;BME280;38637;49.984;20.426;2023-05-09T07:16:46;100312.13;;;11.00;62.77
52745;BME280;38637;49.984;20.426;2023-05-09T07:19:11;100307.25;;;11.02;63.23
52745;BME280;38637;49.984;20.426;2023-05-09T07:21:37;100315.78;;;11.18;62.39
52745;BME280;38637;49.984;20.426;2023-05-09T07:24:02;100316.09;;;11.21;62.55
52745;BME280;38637;49.984;20.426;2023-05-09T07:26:28;100310.28;;;11.30;63.10
52745;BME280;38637;49.984;20.426;2023-05-09T07:28:53;100298.91;;;11.38;62.75
52745;BME280;38637;49.984;20.426;2023-05-09T07:31:18;100294.19;;;11.62;61.46
52745;BME280;38637;49.984;20.426;2023-05-09T07:33:44;100299.31;;;11.58;60.88
52745;BME280;38637;49.984;20.426;2023-05-09T07:36:09;100297.75;;;11.62;61.36
52745;BME280;38637;49.984;20.426;2023-05-09T07:38:38;100298.16;;;11.71;59.97
52745;BME280;38637;49.984;20.426;2023-05-09T07:41:04;100293.13;;;11.80;59.78
52745;BME280;38637;49.984;20.426;2023-05-09T07:43:30;100293.34;;;12.07;58.89
52745;BME280;38637;49.984;20.426;2023-05-09T07:45:56;100281.31;;;12.25;57.89
52745;BME280;38637;49.984;20.426;2023-05-09T07:48:22;100290.03;;;12.22;57.33
52745;BME280;38637;49.984;20.426;2023-05-09T07:50:47;100290.94;;;12.10;57.26
52745;BME280;38637;49.984;20.426;2023-05-09T07:53:13;100282.56;;;12.17;56.39
52745;BME280;38637;49.984;20.426;2023-05-09T07:55:38;100278.72;;;12.18;56.97
52745;BME280;38637;49.984;20.426;2023-05-09T07:58:03;100287.44;;;12.15;56.74
52745;BME280;38637;49.984;20.426;2023-05-09T08:00:29;100275.44;;;12.16;54.84
52745;BME280;38637;49.984;20.426;2023-05-09T08:02:54;100268.88;;;12.17;55.29
52745;BME280;38637;49.984;20.426;2023-05-09T08:05:19;100270.91;;;12.27;54.29
52745;BME280;38637;49.984;20.426;2023-05-09T08:07:45;100274.00;;;12.30;54.75
52745;BME280;38637;49.984;20.426;2023-05-09T08:10:10;100272.59;;;12.28;53.43
52745;BME280;38637;49.984;20.426;2023-05-09T08:12:36;100261.06;;;12.26;52.59
52745;BME280;38637;49.984;20.426;2023-05-09T08:15:02;100255.00;;;12.24;53.10
52745;BME280;38637;49.984;20.426;2023-05-09T08:17:27;100257.41;;;12.20;52.75
52745;BME280;38637;49.984;20.426;2023-05-09T08:19:52;100254.50;;;12.27;52.35
52745;BME280;38637;49.984;20.426;2023-05-09T08:22:18;100256.50;;;12.31;52.10
52745;BME280;38637;49.984;20.426;2023-05-09T08:24:44;100252.06;;;12.30;52.18
52745;BME280;38637;49.984;20.426;2023-05-09T08:27:11;100253.81;;;12.36;51.83
52745;BME280;38637;49.984;20.426;2023-05-09T08:29:40;100242.84;;;12.36;51.57
52745;BME280;38637;49.984;20.426;2023-05-09T08:32:06;100244.84;;;12.41;52.86
52745;BME280;38637;49.984;20.426;2023-05-09T08:34:32;100228.16;;;12.42;52.42
52745;BME280;38637;49.984;20.426;2023-05-09T08:36:59;100236.53;;;12.53;52.14
52745;BME280;38637;49.984;20.426;2023-05-09T08:39:24;100237.44;;;12.58;51.54
52745;BME280;38637;49.984;20.426;2023-05-09T08:41:51;100237.47;;;12.63;50.85
52745;BME280;38637;49.984;20.426;2023-05-09T08:44:17;100246.28;;;12.65;50.10
52745;BME280;38637;49.984;20.426;2023-05-09T08:46:43;100242.75;;;12.70;49.98
52745;BME280;38637;49.984;20.426;2023-05-09T08:49:09;100241.19;;;12.74;51.10
52745;BME280;38637;49.984;20.426;2023-05-09T08:51:35;100231.06;;;12.75;49.69
52745;BME280;38637;49.984;20.426;2023-05-09T08:54:02;100222.22;;;12.68;48.21
52745;BME280;38637;49.984;20.426;2023-05-09T08:56:29;100250.25;;;12.75;47.06
52745;BME280;38637;49.984;20.426;2023-05-09T08:58:54;100230.84;;;12.81;47.51
52745;BME280;38637;49.984;20.426;2023-05-09T09:01:21;100240.28;;;12.91;49.09
52745;BME280;38637;49.984;20.426;2023-05-09T09:03:47;100228.00;;;12.93;47.24
52745;BME280;38637;49.984;20.426;2023-05-09T09:06:14;100228.56;;;12.95;47.92
52745;BME280;38637;49.984;20.426;2023-05-09T09:08:41;100217.91;;;12.99;48.30
52745;BME280;38637;49.984;20.426;2023-05-09T09:11:12;100229.28;;;13.13;47.20
52745;BME280;38637;49.984;20.426;2023-05-09T09:13:40;100214.91;;;13.22;46.54
52745;BME280;38637;49.984;20.426;2023-05-09T09:16:08;100229.16;;;13.24;46.63
52745;BME280;38637;49.984;20.426;2023-05-09T09:18:35;100227.84;;;13.27;47.48
52745;BME280;38637;49.984;20.426;2023-05-09T09:21:09;100224.00;;;13.28;47.95
52745;BME280;38637;49.984;20.426;2023-05-09T09:23:38;100214.44;;;13.30;48.47
52745;BME280;38637;49.984;20.426;2023-05-09T09:26:04;100229.97;;;13.47;48.23
52745;BME280;38637;49.984;20.426;2023-05-09T09:28:29;100228.59;;;13.49;47.48
52745;BME280;38637;49.984;20.426;2023-05-09T09:30:54;100214.03;;;13.44;46.94
52745;BME280;38637;49.984;20.426;2023-05-09T09:33:21;100212.19;;;13.54;47.35
52745;BME280;38637;49.984;20.426;2023-05-09T09:35:53;100208.53;;;13.76;48.09
52745;BME280;38637;49.984;20.426;2023-05-09T09:38:20;100208.13;;;13.94;48.18
52745;BME280;38637;49.984;20.426;2023-05-09T09:40:55;100214.06;;;14.18;47.48
52745;BME280;38637;49.984;20.426;2023-05-09T09:43:30;100209.25;;;14.36;46.52
52745;BME280;38637;49.984;20.426;2023-05-09T09:46:00;100208.16;;;14.37;47.00
52745;BME280;38637;49.984;20.426;2023-05-09T09:48:27;100197.88;;;14.22;45.87
52745;BME280;38637;49.984;20.426;2023-05-09T09:50:55;100192.09;;;14.18;46.50
52745;BME280;38637;49.984;20.426;2023-05-09T09:53:25;100190.66;;;14.06;47.25
52745;BME280;38637;49.984;20.426;2023-05-09T09:55:54;100184.28;;;14.00;47.22
52745;BME280;38637;49.984;20.426;2023-05-09T09:58:19;100194.69;;;13.98;45.38
52745;BME280;38637;49.984;20.426;2023-05-09T10:01:09;100196.88;;;14.38;45.84
52745;BME280;38637;49.984;20.426;2023-05-09T10:03:40;100197.94;;;14.80;44.75
52745;BME280;38637;49.984;20.426;2023-05-09T10:06:14;100196.94;;;15.06;44.35
52745;BME280;38637;49.984;20.426;2023-05-09T10:08:40;100187.03;;;15.15;43.50
52745;BME280;38637;49.984;20.426;2023-05-09T10:11:06;100187.53;;;15.02;43.23
52745;BME280;38637;49.984;20.426;2023-05-09T10:13:35;100182.84;;;14.92;42.82
52745;BME280;38637;49.984;20.426;2023-05-09T10:16:02;100189.66;;;14.75;43.38
52745;BME280;38637;49.984;20.426;2023-05-09T10:18:28;100180.06;;;14.82;43.85
52745;BME280;38637;49.984;20.426;2023-05-09T10:20:55;100187.81;;;14.96;43.20
52745;BME280;38637;49.984;20.426;2023-05-09T10:23:22;100177.97;;;15.30;43.30
52745;BME280;38637;49.984;20.426;2023-05-09T10:25:54;100178.53;;;15.58;43.69
52745;BME280;38637;49.984;20.426;2023-05-09T10:28:27;100169.22;;;15.74;43.95
52745;BME280;38637;49.984;20.426;2023-05-09T10:31:06;100176.91;;;15.88;42.69
52745;BME280;38637;49.984;20.426;2023-05-09T10:33:42;100165.91;;;15.93;42.60
52745;BME280;38637;49.984;20.426;2023-05-09T10:36:10;100162.81;;;16.15;42.41
52745;BME280;38637;49.984;20.426;2023-05-09T10:38:37;100159.56;;;15.87;38.77
52745;BME280;38637;49.984;20.426;2023-05-09T10:41:03;100164.50;;;16.11;40.19
52745;BME280;38637;49.984;20.426;2023-05-09T10:43:31;100164.19;;;16.22;39.37
52745;BME280;38637;49.984;20.426;2023-05-09T10:45:57;100163.31;;;16.37;39.23
52745;BME280;38637;49.984;20.426;2023-05-09T10:48:23;100154.91;;;16.68;39.36
52745;BME280;38637;49.984;20.426;2023-05-09T10:50:49;100161.22;;;16.73;39.14
52745;BME280;38637;49.984;20.426;2023-05-09T10:53:15;100160.09;;;16.90;39.35
52745;BME280;38637;49.984;20.426;2023-05-09T11:00:52;100124.44;;;16.98;36.60
52745;BME280;38637;49.984;20.426;2023-05-09T11:03:17;100136.00;;;17.06;37.95
52745;BME280;38637;49.984;20.426;2023-05-09T11:05:47;100120.25;;;17.06;37.25
52745;BME280;38637;49.984;20.426;2023-05-09T11:08:24;100129.03;;;17.48;37.12
52745;BME280;38637;49.984;20.426;2023-05-09T11:10:50;100125.47;;;17.47;36.48
52745;BME280;38637;49.984;20.426;2023-05-09T11:13:21;100123.13;;;17.30;36.25
52745;BME280;38637;49.984;20.426;2023-05-09T11:18:26;100119.03;;;16.73;36.27
52745;BME280;38637;49.984;20.426;2023-05-09T11:20:51;100123.31;;;16.50;36.40
52745;BME280;38637;49.984;20.426;2023-05-09T11:23:24;100118.75;;;16.80;37.00
52745;BME280;38637;49.984;20.426;2023-05-09T11:25:49;100129.28;;;17.17;37.25
52745;BME280;38637;49.984;20.426;2023-05-09T11:28:29;100118.88;;;17.09;37.16
52745;BME280;38637;49.984;20.426;2023-05-09T11:31:12;100121.88;;;17.12;37.27
52745;BME280;38637;49.984;20.426;2023-05-09T11:33:39;100118.91;;;17.38;36.51
52745;BME280;38637;49.984;20.426;2023-05-09T11:36:17;100108.75;;;17.62;36.39
52745;BME280;38637;49.984;20.426;2023-05-09T11:38:47;100107.34;;;17.65;36.05
52745;BME280;38637;49.984;20.426;2023-05-09T11:41:12;100101.72;;;17.80;36.46
52745;BME280;38637;49.984;20.426;2023-05-09T11:43:38;100095.91;;;18.06;35.42
52745;BME280;38637;49.984;20.426;2023-05-09T11:46:04;100086.38;;;18.17;36.03
52745;BME280;38637;49.984;20.426;2023-05-09T11:48:30;100096.22;;;18.28;36.12
52745;BME280;38637;49.984;20.426;2023-05-09T11:51:01;100094.41;;;18.19;36.76
52745;BME280;38637;49.984;20.426;2023-05-09T11:53:27;100106.88;;;18.16;35.82
52745;BME280;38637;49.984;20.426;2023-05-09T11:55:52;100089.19;;;18.12;34.90
52745;BME280;38637;49.984;20.426;2023-05-09T11:58:19;100093.41;;;18.33;35.09
52745;BME280;38637;49.984;20.426;2023-05-09T12:00:44;100079.25;;;18.35;34.73
52745;BME280;38637;49.984;20.426;2023-05-09T12:03:10;100083.66;;;18.36;33.87
52745;BME280;38637;49.984;20.426;2023-05-09T12:05:36;100083.34;;;18.19;34.78
52745;BME280;38637;49.984;20.426;2023-05-09T12:08:04;100073.56;;;18.02;34.28
52745;BME280;38637;49.984;20.426;2023-05-09T12:10:30;100087.50;;;17.92;34.81
52745;BME280;38637;49.984;20.426;2023-05-09T12:12:55;100073.88;;;18.01;34.34
52745;BME280;38637;49.984;20.426;2023-05-09T12:15:21;100073.91;;;17.96;34.78
52745;BME280;38637;49.984;20.426;2023-05-09T12:17:59;100074.09;;;18.04;34.83
52745;BME280;38637;49.984;20.426;2023-05-09T12:20:25;100067.16;;;18.07;34.27
52745;BME280;38637;49.984;20.426;2023-05-09T12:22:53;100077.44;;;18.25;34.63
52745;BME280;38637;49.984;20.426;2023-05-09T12:25:19;100065.16;;;18.36;35.45
52745;BME280;38637;49.984;20.426;2023-05-09T12:27:44;100066.38;;;18.25;34.90
52745;BME280;38637;49.984;20.426;2023-05-09T12:30:10;100068.09;;;18.21;35.40
52745;BME280;38637;49.984;20.426;2023-05-09T12:32:38;100060.44;;;17.60;34.41
52745;BME280;38637;49.984;20.426;2023-05-09T12:35:06;100058.69;;;17.69;35.13
52745;BME280;38637;49.984;20.426;2023-05-09T12:37:32;100049.59;;;17.98;34.66
52745;BME280;38637;49.984;20.426;2023-05-09T12:42:31;100053.59;;;18.29;33.87
52745;BME280;38637;49.984;20.426;2023-05-09T12:44:57;100039.66;;;18.40;34.38
52745;BME280;38637;49.984;20.426;2023-05-09T12:47:26;100038.00;;;18.38;34.11
52745;BME280;38637;49.984;20.426;2023-05-09T12:49:59;100035.25;;;18.38;33.96
52745;BME280;38637;49.984;20.426;2023-05-09T12:52:31;100033.44;;;18.48;34.43
52745;BME280;38637;49.984;20.426;2023-05-09T12:55:06;100028.25;;;18.46;34.89
52745;BME280;38637;49.984;20.426;2023-05-09T12:57:32;100032.19;;;18.40;34.72
52745;BME280;38637;49.984;20.426;2023-05-09T12:59:58;100030.25;;;18.41;34.66